createdAt,value
2018-02-19T00:01:30.151Z,81.10
2018-02-19T00:03:57.635Z,81.40
2018-02-19T00:06:25.542Z,81.90
2018-02-19T00:08:53.033Z,81.90
2018-02-19T00:11:20.540Z,81.70
2018-02-19T00:13:48.813Z,81.50
2018-02-19T00:16:16.426Z,81.40
2018-02-19T00:18:44.318Z,81.80
2018-02-19T00:21:11.812Z,81.80
2018-02-19T00:23:39.305Z,82.10
2018-02-19T00:26:06.814Z,82.20
2018-02-19T00:28:34.299Z,82.10
2018-02-19T00:31:01.805Z,82.40
2018-02-19T00:33:29.298Z,82.80
2018-02-19T00:35:56.810Z,82.70
2018-02-19T00:38:24.309Z,82.80
2018-02-19T00:40:51.812Z,82.90
2018-02-19T00:43:19.313Z,83.10
2018-02-19T00:45:47.219Z,83.10
2018-02-19T00:48:14.713Z,83.10
2018-02-19T00:50:42.216Z,83.80
2018-02-19T00:53:09.695Z,83.90
2018-02-19T00:55:37.593Z,84.20
2018-02-19T00:58:05.078Z,84.10
2018-02-19T01:00:32.581Z,84.30
2018-02-19T01:03:00.063Z,84.80
2018-02-19T01:05:27.559Z,85.10
2018-02-19T01:07:55.440Z,85.30
2018-02-19T01:10:23.344Z,85.40
2018-02-19T01:12:50.841Z,85.40
2018-02-19T01:15:18.348Z,85.60
2018-02-19T01:17:45.854Z,85.40
2018-02-19T01:20:13.364Z,85.50
2018-02-19T01:22:40.849Z,85.50
2018-02-19T01:25:08.356Z,85.40
2018-02-19T01:27:35.865Z,85.80
2018-02-19T01:30:03.363Z,86.10
2018-02-19T01:32:30.867Z,85.90
2018-02-19T01:34:58.754Z,86.20
2018-02-19T01:37:26.265Z,86.20
2018-02-19T01:39:53.748Z,86.20
2018-02-19T01:42:21.247Z,86.10
2018-02-19T01:44:49.132Z,86.90
2018-02-19T01:47:17.124Z,86.80
2018-02-19T01:52:50.282Z,86.30
2018-02-19T01:55:17.772Z,86.30
2018-02-19T01:57:45.283Z,86.70
2018-02-19T02:00:13.156Z,86.70
2018-02-19T02:02:40.665Z,86.70
2018-02-19T02:05:08.147Z,86.70
2018-02-19T02:07:35.696Z,86.60
2018-02-19T02:10:03.170Z,86.70
2018-02-19T02:12:30.685Z,86.70
2018-02-19T02:14:58.182Z,86.40
2018-02-19T02:17:25.691Z,86.50
2018-02-19T02:19:53.237Z,86.70
2018-02-19T02:22:21.154Z,86.50
2018-02-19T02:24:48.645Z,86.50
2018-02-19T02:27:16.149Z,86.40
2018-02-19T02:29:43.729Z,86.50
2018-02-19T02:32:11.642Z,86.60
2018-02-19T02:34:39.176Z,86.60
2018-02-19T02:37:07.085Z,86.50
2018-02-19T02:39:34.588Z,86.50
2018-02-19T02:42:02.092Z,86.70
2018-02-19T02:44:29.576Z,86.70
2018-02-19T02:46:57.482Z,86.20
2018-02-19T02:49:24.975Z,86.20
2018-02-19T02:51:52.483Z,86.00
2018-02-19T02:54:19.976Z,86.30
2018-02-19T02:56:47.495Z,86.20
2018-02-19T02:59:14.993Z,86.30
2018-02-19T03:01:42.496Z,86.50
2018-02-19T03:04:09.980Z,86.60
2018-02-19T03:06:37.489Z,86.60
2018-02-19T03:09:05.027Z,86.60
2018-02-19T03:11:32.554Z,86.60
2018-02-19T03:14:00.048Z,86.40
2018-02-19T03:16:27.533Z,86.20
2018-02-19T03:18:55.031Z,86.10
2018-02-19T03:21:22.520Z,86.00
2018-02-19T03:23:50.024Z,86.30
2018-02-19T03:26:17.520Z,86.40
2018-02-19T03:28:45.029Z,86.60
2018-02-19T03:31:12.534Z,86.60
2018-02-19T03:33:40.437Z,86.90
2018-02-19T03:36:07.949Z,86.90
2018-02-19T03:38:35.455Z,86.90
2018-02-19T03:41:03.346Z,87.10
2018-02-19T03:43:30.869Z,87.10
2018-02-19T03:45:58.361Z,87.20
2018-02-19T03:48:25.873Z,87.30
2018-02-19T03:50:53.369Z,87.30
2018-02-19T03:53:20.877Z,87.30
2018-02-19T03:55:48.457Z,87.30
2018-02-19T03:58:16.365Z,87.30
2018-02-19T04:00:43.857Z,87.20
2018-02-19T04:03:11.365Z,87.40
2018-02-19T04:05:38.868Z,87.00
2018-02-19T04:08:06.381Z,87.20
2018-02-19T04:10:33.867Z,87.40
2018-02-19T04:13:01.378Z,87.80
2018-02-19T04:15:28.877Z,87.80
2018-02-19T04:17:56.389Z,87.30
2018-02-19T04:20:23.901Z,87.30
2018-02-19T04:22:51.403Z,87.00
2018-02-19T04:25:18.888Z,87.10
2018-02-19T04:27:46.397Z,87.10
2018-02-19T04:30:13.885Z,87.30
2018-02-19T04:32:41.393Z,87.20
2018-02-19T04:35:08.889Z,87.10
2018-02-19T04:37:36.798Z,86.70
2018-02-19T04:40:04.284Z,86.70
2018-02-19T04:42:31.777Z,86.80
2018-02-19T04:45:00.784Z,86.70
2018-02-19T04:47:28.281Z,86.50
2018-02-19T04:49:55.787Z,86.50
2018-02-19T04:52:23.272Z,86.50
2018-02-19T04:54:50.788Z,86.40
2018-02-19T04:57:18.281Z,86.20
2018-02-19T04:59:46.175Z,86.50
2018-02-19T05:02:13.675Z,86.50
2018-02-19T05:04:41.180Z,86.40
2018-02-19T05:07:08.677Z,86.30
2018-02-19T05:09:36.241Z,86.40
2018-02-19T05:12:04.133Z,86.50
2018-02-19T05:14:31.737Z,86.50
2018-02-19T05:16:59.227Z,86.50
2018-02-19T05:19:26.733Z,86.40
2018-02-19T05:21:54.625Z,86.20
2018-02-19T05:24:22.597Z,86.10
2018-02-19T05:26:50.485Z,86.10
2018-02-19T05:29:18.393Z,86.00
2018-02-19T05:31:45.888Z,86.00
2018-02-19T05:34:13.409Z,85.80
2018-02-19T05:36:40.895Z,85.90
2018-02-19T05:39:08.406Z,85.90
2018-02-19T05:41:35.891Z,86.10
2018-02-19T05:44:03.409Z,86.10
2018-02-19T05:46:30.906Z,86.00
2018-02-19T05:48:58.420Z,86.00
2018-02-19T05:51:25.912Z,86.20
2018-02-19T05:53:53.429Z,86.20
2018-02-19T05:56:20.920Z,86.00
2018-02-19T05:58:48.427Z,85.80
2018-02-19T06:01:15.922Z,85.80
2018-02-19T06:03:43.427Z,85.90
2018-02-19T06:06:10.920Z,86.10
2018-02-19T06:08:38.823Z,85.80
2018-02-19T06:11:06.313Z,85.80
2018-02-19T06:13:33.810Z,85.90
2018-02-19T06:16:01.327Z,85.80
2018-02-19T06:18:28.820Z,85.80
2018-02-19T06:20:56.323Z,85.80
2018-02-19T06:23:23.821Z,85.60
2018-02-19T06:25:51.806Z,85.50
2018-02-19T06:28:19.300Z,85.50
2018-02-19T06:30:46.808Z,85.20
2018-02-19T06:33:14.300Z,85.00
2018-02-19T06:35:41.881Z,85.40
2018-02-19T06:38:09.769Z,85.00
2018-02-19T06:40:37.739Z,85.10
2018-02-19T06:43:05.233Z,85.10
2018-02-19T06:45:32.745Z,84.70
2018-02-19T06:48:00.231Z,84.60
2018-02-19T06:50:27.741Z,84.60
2018-02-19T06:52:55.634Z,84.70
2018-02-19T06:55:23.144Z,84.70
2018-02-19T06:57:50.657Z,84.70
2018-02-19T07:00:18.552Z,84.70
2018-02-19T07:02:46.041Z,84.70
2018-02-19T07:05:13.550Z,84.60
2018-02-19T07:07:41.035Z,84.80
2018-02-19T07:10:08.545Z,84.90
2018-02-19T07:12:36.042Z,84.50
2018-02-19T07:15:03.545Z,84.30
2018-02-19T07:17:31.033Z,84.10
2018-02-19T07:19:58.925Z,84.20
2018-02-19T07:22:26.415Z,84.20
2018-02-19T07:24:53.924Z,84.20
2018-02-19T07:27:21.413Z,84.00
2018-02-19T07:29:49.312Z,83.70
2018-02-19T07:32:17.196Z,83.70
2018-02-19T07:34:44.700Z,83.80
2018-02-19T07:37:12.176Z,84.00
2018-02-19T07:39:39.665Z,83.70
2018-02-19T07:42:07.173Z,83.90
2018-02-19T07:44:34.657Z,86.10
2018-02-19T07:47:02.165Z,78.40
2018-02-19T07:49:29.660Z,79.50
2018-02-19T07:51:57.168Z,80.40
2018-02-19T07:54:24.666Z,81.40
2018-02-19T07:56:52.169Z,81.40
2018-02-19T07:59:19.662Z,82.20
2018-02-19T08:01:47.569Z,82.70
2018-02-19T08:04:15.061Z,82.70
2018-02-19T08:06:42.569Z,82.80
2018-02-19T08:09:10.456Z,83.20
2018-02-19T08:11:38.356Z,83.10
2018-02-19T08:14:05.842Z,83.10
2018-02-19T08:16:33.346Z,83.20
2018-02-19T08:19:00.828Z,82.90
2018-02-19T08:21:28.418Z,82.30
2018-02-19T08:23:56.359Z,82.30
2018-02-19T08:26:23.812Z,82.30
2018-02-19T08:28:51.341Z,82.10
2018-02-19T08:31:19.245Z,82.00
2018-02-19T08:33:46.737Z,82.00
2018-02-19T08:36:14.253Z,82.30
2018-02-19T08:38:41.737Z,82.10
2018-02-19T08:41:09.645Z,82.40
2018-02-19T08:43:37.141Z,82.40
2018-02-19T08:46:04.649Z,81.30
2018-02-19T08:48:32.541Z,81.30
2018-02-19T08:51:00.447Z,81.60
2018-02-19T08:53:27.981Z,81.60
2018-02-19T08:55:55.960Z,81.00
2018-02-19T08:58:23.439Z,81.00
2018-02-19T09:00:51.345Z,81.00
2018-02-19T09:03:18.828Z,81.00
2018-02-19T09:05:46.353Z,81.00
2018-02-19T09:08:13.841Z,80.50
2018-02-19T09:10:41.726Z,80.00
2018-02-19T09:13:09.248Z,80.00
2018-02-19T09:15:37.175Z,79.70
2018-02-19T09:18:04.678Z,79.70
2018-02-19T09:20:32.161Z,79.20
2018-02-19T09:22:59.670Z,79.10
2018-02-19T09:25:27.554Z,79.50
2018-02-19T09:27:55.462Z,79.00
2018-02-19T09:30:22.947Z,79.00
2018-02-19T09:32:50.443Z,78.60
2018-02-19T09:35:17.933Z,78.80
2018-02-19T09:37:45.831Z,78.70
2018-02-19T09:40:13.718Z,78.20
2018-02-19T09:42:41.221Z,78.20
2018-02-19T09:45:08.714Z,77.50
2018-02-19T09:47:36.218Z,77.80
2018-02-19T09:50:04.101Z,77.70
2018-02-19T09:52:32.005Z,78.00
2018-02-19T09:54:59.550Z,77.90
2018-02-19T09:57:27.073Z,78.10
2018-02-19T09:59:54.557Z,78.20
2018-02-19T10:02:22.058Z,78.40
2018-02-19T10:04:49.943Z,78.10
2018-02-19T10:07:17.840Z,77.70
2018-02-19T10:09:45.335Z,77.70
2018-02-19T10:12:12.843Z,78.00
2018-02-19T10:14:40.333Z,78.20
2018-02-19T10:17:08.237Z,79.20
2018-02-19T10:19:35.729Z,79.20
2018-02-19T10:22:03.241Z,78.20
2018-02-19T10:24:31.129Z,77.50
2018-02-19T10:26:59.114Z,76.60
2018-02-19T10:29:26.613Z,76.60
2018-02-19T10:31:54.125Z,76.30
2018-02-19T10:34:21.608Z,76.60
2018-02-19T10:36:49.093Z,77.00
2018-02-19T10:39:16.993Z,77.60
2018-02-19T10:41:44.564Z,77.60
2018-02-19T10:44:12.118Z,77.40
2018-02-19T10:46:40.005Z,76.10
2018-02-19T10:49:07.973Z,76.10
2018-02-19T10:51:35.861Z,75.80
2018-02-19T10:54:03.777Z,75.50
2018-02-19T10:56:31.267Z,75.50
2018-02-19T10:58:58.769Z,76.10
2018-02-19T11:01:26.268Z,75.20
2018-02-19T11:03:53.777Z,75.10
2018-02-19T11:06:21.270Z,74.90
2018-02-19T11:08:48.772Z,75.10
2018-02-19T11:11:16.652Z,73.70
2018-02-19T11:13:44.173Z,73.70
2018-02-19T11:16:11.664Z,73.30
2018-02-19T11:18:39.173Z,74.30
2018-02-19T11:21:06.661Z,73.90
2018-02-19T11:23:34.506Z,73.70
2018-02-19T11:26:02.394Z,73.70
2018-02-19T11:28:29.950Z,73.70
2018-02-19T11:30:57.833Z,74.30
2018-02-19T11:33:25.834Z,74.70
2018-02-19T11:35:53.412Z,74.70
2018-02-19T11:38:20.908Z,74.70
2018-02-19T11:40:48.391Z,74.30
2018-02-19T11:43:15.901Z,74.10
2018-02-19T11:45:43.775Z,73.90
2018-02-19T11:48:11.684Z,74.20
2018-02-19T11:50:39.325Z,74.20
2018-02-19T11:53:06.834Z,73.00
2018-02-19T11:55:34.611Z,73.60
2018-02-19T11:58:02.125Z,73.00
2018-02-19T12:00:29.736Z,72.80
2018-02-19T12:02:57.627Z,71.10
2018-02-19T12:05:25.225Z,71.10
2018-02-19T12:07:52.708Z,71.70
2018-02-19T12:10:20.257Z,72.20
2018-02-19T12:12:47.753Z,71.80
2018-02-19T12:15:15.272Z,71.40
2018-02-19T12:17:42.785Z,71.20
2018-02-19T12:20:10.305Z,71.70
2018-02-19T12:22:38.310Z,70.90
2018-02-19T12:25:05.844Z,70.90
2018-02-19T12:27:33.453Z,71.20
2018-02-19T12:30:01.008Z,70.30
2018-02-19T12:32:29.010Z,70.90
2018-02-19T12:34:56.551Z,70.90
2018-02-19T12:37:24.047Z,68.00
2018-02-19T12:39:51.557Z,68.20
2018-02-19T12:42:19.094Z,69.00
2018-02-19T12:44:46.626Z,69.30
2018-02-19T12:47:14.135Z,69.50
2018-02-19T12:49:41.672Z,70.70
2018-02-19T12:52:09.165Z,70.20
2018-02-19T12:54:37.109Z,69.10
2018-02-19T12:57:04.568Z,69.00
2018-02-19T12:59:32.079Z,70.00
2018-02-19T13:01:59.961Z,71.00
2018-02-19T13:04:27.882Z,70.80
2018-02-19T13:06:55.384Z,70.80
2018-02-19T13:09:22.904Z,71.90
2018-02-19T13:11:50.393Z,70.90
2018-02-19T13:14:17.928Z,74.10
2018-02-19T13:16:45.819Z,66.40
2018-02-19T13:19:13.324Z,66.40
2018-02-19T13:21:41.243Z,67.70
2018-02-19T13:24:08.749Z,67.70
2018-02-19T13:26:36.246Z,68.00
2018-02-19T13:29:03.799Z,67.50
2018-02-19T13:31:31.299Z,67.20
2018-02-19T13:33:58.805Z,68.20
2018-02-19T13:36:26.740Z,68.40
2018-02-19T13:38:54.238Z,68.40
2018-02-19T13:41:21.757Z,68.60
2018-02-19T13:43:49.245Z,68.00
2018-02-19T13:46:16.756Z,68.40
2018-02-19T13:48:44.242Z,68.20
2018-02-19T13:51:12.136Z,68.00
2018-02-19T13:53:39.629Z,68.00
2018-02-19T13:56:07.133Z,69.70
2018-02-19T13:58:34.621Z,69.90
2018-02-19T14:01:02.134Z,68.90
2018-02-19T14:03:29.628Z,71.40
2018-02-19T14:05:57.138Z,65.70
2018-02-19T14:08:25.029Z,66.90
2018-02-19T14:10:52.937Z,67.10
2018-02-19T14:13:20.429Z,67.10
2018-02-19T14:17:33.152Z,67.60
2018-02-19T14:20:00.657Z,67.60
2018-02-19T14:22:28.165Z,67.50
2018-02-19T14:24:56.171Z,67.30
2018-02-19T14:27:23.661Z,67.30
2018-02-19T14:29:51.324Z,68.30
2018-02-19T14:32:18.812Z,67.60
2018-02-19T14:34:46.355Z,68.30
2018-02-19T14:37:13.924Z,68.10
2018-02-19T14:39:41.440Z,68.10
2018-02-19T14:42:09.374Z,67.70
2018-02-19T14:44:36.949Z,67.70
2018-02-19T14:47:04.462Z,67.20
2018-02-19T14:49:31.991Z,67.30
2018-02-19T14:51:59.524Z,67.80
2018-02-19T14:54:27.073Z,68.30
2018-02-19T14:56:54.580Z,68.20
2018-02-19T14:59:22.468Z,68.50
2018-02-19T15:01:50.374Z,68.50
2018-02-19T15:04:18.048Z,68.50
2018-02-19T15:06:45.583Z,68.90
2018-02-19T15:09:13.079Z,69.20
2018-02-19T15:11:41.004Z,69.10
2018-02-19T15:17:11.990Z,68.70
2018-02-19T15:19:39.892Z,69.00
2018-02-19T15:22:07.418Z,69.00
2018-02-19T15:24:34.914Z,69.40
2018-02-19T15:27:02.439Z,69.10
2018-02-19T15:34:22.550Z,70.30
2018-02-19T15:36:50.542Z,71.00
2018-02-19T15:39:18.430Z,70.50
2018-02-19T15:41:45.946Z,70.50
2018-02-19T15:44:13.838Z,71.20
2018-02-19T15:46:41.429Z,71.20
2018-02-19T15:49:09.423Z,70.50
2018-02-19T15:51:37.016Z,70.40
2018-02-19T15:57:08.717Z,70.40
2018-02-19T15:59:36.214Z,70.50
2018-02-19T16:02:03.729Z,70.40
2018-02-19T16:04:31.710Z,71.20
2018-02-19T16:06:59.622Z,70.90
2018-02-19T16:09:27.512Z,71.10
2018-02-19T16:11:55.117Z,71.10
2018-02-19T16:14:23.000Z,71.90
2018-02-19T16:16:50.505Z,71.90
2018-02-19T16:19:18.454Z,71.90
2018-02-19T16:21:45.947Z,71.90
2018-02-19T16:24:13.437Z,71.70
2018-02-19T16:26:40.935Z,71.60
2018-02-19T16:29:08.514Z,71.40
2018-02-19T16:31:36.011Z,71.90
2018-02-19T16:34:03.490Z,71.10
2018-02-19T16:36:31.083Z,71.70
2018-02-19T16:38:58.569Z,71.40
2018-02-19T16:41:26.086Z,71.40
2018-02-19T16:43:53.978Z,71.60
2018-02-19T16:48:30.590Z,71.60
2018-02-19T16:50:58.100Z,72.00
2018-02-19T16:53:26.055Z,71.90
2018-02-19T16:55:53.545Z,71.90
2018-02-19T16:58:21.141Z,71.80
2018-02-19T17:00:49.283Z,72.30
2018-02-19T17:06:14.283Z,72.80
2018-02-19T17:08:41.779Z,73.30
2018-02-19T17:11:09.263Z,73.60
2018-02-19T17:13:36.759Z,73.90
2018-02-19T17:16:04.239Z,73.40
2018-02-19T17:18:31.732Z,73.70
2018-02-19T17:20:59.207Z,73.90
2018-02-19T17:23:26.708Z,74.10
2018-02-19T17:25:54.188Z,74.30
2018-02-19T17:28:21.679Z,74.20
2018-02-19T17:30:49.159Z,74.30
2018-02-19T17:33:16.651Z,74.60
2018-02-19T17:35:59.903Z,75.10
2018-02-19T17:38:27.425Z,75.40
2018-02-19T17:40:54.896Z,75.50
2018-02-19T17:43:22.399Z,75.80
2018-02-19T17:45:49.888Z,75.30
2018-02-19T17:48:17.383Z,75.50
2018-02-19T17:50:44.863Z,75.70
2018-02-19T17:53:12.355Z,76.10
2018-02-19T17:55:39.836Z,75.70
2018-02-19T17:58:07.326Z,76.50
2018-02-19T18:00:34.800Z,76.60
2018-02-19T18:03:02.297Z,76.10
2018-02-19T18:05:29.780Z,76.90
2018-02-19T18:07:57.271Z,77.20
2018-02-19T18:10:24.750Z,77.30
2018-02-19T18:12:52.250Z,77.70
2018-02-19T18:15:19.737Z,76.90
2018-02-19T18:17:47.248Z,77.20
2018-02-19T18:20:15.133Z,77.90
2018-02-19T18:22:42.637Z,77.90
2018-02-19T18:25:10.521Z,77.50
2018-02-19T18:27:38.405Z,77.70
2018-02-19T18:30:05.912Z,77.70
2018-02-19T18:32:33.793Z,77.30
2018-02-19T18:35:01.291Z,77.30
2018-02-19T18:37:28.775Z,77.60
2018-02-19T18:39:56.688Z,77.70
2018-02-19T18:42:24.564Z,78.00
2018-02-19T18:44:52.061Z,78.00
2018-02-19T18:47:19.943Z,78.30
2018-02-19T18:49:47.443Z,78.30
2018-02-19T18:52:15.328Z,78.00
2018-02-19T18:54:43.231Z,77.50
2018-02-19T18:57:10.720Z,77.50
2018-02-19T18:59:38.229Z,77.60
2018-02-19T19:02:05.708Z,77.50
2018-02-19T19:04:33.213Z,77.90
2018-02-19T19:07:00.697Z,77.80
2018-02-19T19:09:40.492Z,78.70
2018-02-19T19:12:07.975Z,78.70
2018-02-19T19:14:35.471Z,79.00
2018-02-19T19:17:02.948Z,78.80
2018-02-19T19:19:30.448Z,78.50
2018-02-19T19:21:57.931Z,79.00
2018-02-19T19:24:25.430Z,79.00
2018-02-19T19:26:52.996Z,79.10
2018-02-19T19:29:20.858Z,79.30
2018-02-19T19:31:48.731Z,79.70
2018-02-19T19:34:16.239Z,79.70
2018-02-19T19:36:43.721Z,79.90
2018-02-19T19:39:11.219Z,80.20
2018-02-19T19:41:38.704Z,80.30
2018-02-19T19:44:06.591Z,79.70
2018-02-19T19:46:34.554Z,79.70
2018-02-19T19:49:02.065Z,79.70
2018-02-19T19:51:29.578Z,79.90
2018-02-19T19:53:57.125Z,80.00
2018-02-19T19:56:24.602Z,80.10
2018-02-19T19:58:52.091Z,80.40
2018-02-19T20:01:19.627Z,80.80
2018-02-19T20:03:47.111Z,80.60
2018-02-19T20:06:14.620Z,80.70
2018-02-19T20:08:42.489Z,80.80
2018-02-19T20:11:10.023Z,80.50
2018-02-19T20:13:37.557Z,80.50
2018-02-19T20:16:05.052Z,80.70
2018-02-19T20:18:32.535Z,81.00
2018-02-19T20:21:00.040Z,80.80
2018-02-19T20:23:27.523Z,80.90
2018-02-19T20:25:55.291Z,80.80
2018-02-19T20:28:22.780Z,80.90
2018-02-19T20:30:50.441Z,80.90
2018-02-19T20:33:17.927Z,81.00
2018-02-19T20:35:45.679Z,80.90
2018-02-19T20:38:13.159Z,81.10
2018-02-19T20:40:40.775Z,80.90
2018-02-19T20:43:08.255Z,81.10
2018-02-19T20:45:35.776Z,81.40
2018-02-19T20:48:03.259Z,81.00
2018-02-19T20:50:30.837Z,81.00
2018-02-19T20:52:58.356Z,81.00
2018-02-19T20:55:25.852Z,81.30
2018-02-19T20:57:53.344Z,81.40
2018-02-19T21:00:20.844Z,81.30
2018-02-19T21:02:48.327Z,81.10
2018-02-19T21:05:15.812Z,81.30
2018-02-19T21:07:43.459Z,81.20
2018-02-19T21:10:10.939Z,80.90
2018-02-19T21:12:38.638Z,81.00
2018-02-19T21:15:06.130Z,81.20
2018-02-19T21:17:33.687Z,81.00
2018-02-19T21:20:01.190Z,80.90
2018-02-19T21:22:28.817Z,80.60
2018-02-19T21:24:56.298Z,80.80
2018-02-19T21:27:23.999Z,80.60
2018-02-19T21:29:51.492Z,80.80
2018-02-19T21:32:19.011Z,80.70
2018-02-19T21:34:46.521Z,80.60
2018-02-19T21:37:14.068Z,80.90
2018-02-19T21:39:41.547Z,81.20
2018-02-19T21:42:09.044Z,81.40
2018-02-19T21:44:36.568Z,81.40
2018-02-19T21:47:04.083Z,81.60
2018-02-19T21:49:31.955Z,81.90
2018-02-19T21:51:59.451Z,81.80
2018-02-19T21:54:26.934Z,81.70
2018-02-19T21:56:54.427Z,81.60
2018-02-19T21:59:21.991Z,81.80
2018-02-19T22:01:49.488Z,81.70
2018-02-19T22:04:16.966Z,81.70
2018-02-19T22:06:44.467Z,82.40
2018-02-19T22:09:11.947Z,82.30
2018-02-19T22:11:39.451Z,82.20
2018-02-19T22:14:06.935Z,82.50
2018-02-19T22:16:34.431Z,82.60
2018-02-19T22:19:01.912Z,82.50
2018-02-19T22:21:29.407Z,82.50
2018-02-19T22:23:56.900Z,82.70
2018-02-19T22:26:24.399Z,82.60
2018-02-19T22:28:51.888Z,82.70
2018-02-19T22:31:19.403Z,82.90
2018-02-19T22:33:46.892Z,82.60
2018-02-19T22:36:14.376Z,83.10
2018-02-19T22:38:41.896Z,82.80
2018-02-19T22:41:09.380Z,82.60
2018-02-19T22:43:36.880Z,82.80
2018-02-19T22:46:04.362Z,82.80
2018-02-19T22:48:31.859Z,82.70
2018-02-19T22:50:59.439Z,82.90
2018-02-19T22:53:26.941Z,82.80
2018-02-19T22:55:54.425Z,82.90
2018-02-19T22:58:21.926Z,83.00
2018-02-19T23:00:49.412Z,83.20
2018-02-19T23:03:16.915Z,83.20
2018-02-19T23:05:44.788Z,83.20
2018-02-19T23:08:12.298Z,83.20
2018-02-19T23:10:39.794Z,83.20
2018-02-19T23:13:07.304Z,82.90
2018-02-19T23:15:34.800Z,82.90
2018-02-19T23:18:02.313Z,83.10
2018-02-19T23:20:30.205Z,83.20
2018-02-19T23:22:57.718Z,83.10
2018-02-19T23:25:25.211Z,83.10
2018-02-19T23:27:52.721Z,83.10
2018-02-19T23:30:20.217Z,83.40
2018-02-19T23:32:47.730Z,83.60
2018-02-19T23:35:15.628Z,83.70
2018-02-19T23:37:43.143Z,83.70
2018-02-19T23:40:10.643Z,83.40
2018-02-19T23:42:38.157Z,83.40
2018-02-19T23:45:05.654Z,83.30
2018-02-19T23:47:33.168Z,83.40
2018-02-19T23:50:01.058Z,83.70
2018-02-19T23:52:28.969Z,83.80
2018-02-19T23:54:56.862Z,83.50
2018-02-19T23:57:24.749Z,83.60
2018-02-19T23:59:52.654Z,83.50
